sensor_id;sensor_type;location;lat;lon;timestamp;pressure;altitude;pressure_sealevel;temperature;humidity
11347;BME280;5728;42.722;23.258;2022-12-24T00:01:30;94600.41;;;2.50;100.00
11347;BME280;5728;42.722;23.258;2022-12-24T00:03:57;94628.31;;;3.01;100.00
11347;BME280;5728;42.722;23.258;2022-12-24T00:06:24;94649.47;;;2.21;100.00
11347;BME280;5728;42.722;23.258;2022-12-24T00:08:51;94647.63;;;2.74;100.00
11347;BME280;5728;42.722;23.258;2022-12-24T00:11:20;94651.63;;;2.55;100.00
11347;BME280;5728;42.722;23.258;2022-12-24T00:13:47;94640.06;;;2.84;100.00
11347;BME280;5728;42.722;23.258;2022-12-24T00:16:14;94644.81;;;2.54;100.00
11347;BME280;5728;42.722;23.258;2022-12-24T00:18:41;94645.88;;;2.71;100.00
11347;BME280;5728;42.722;23.258;2022-12-24T00:21:08;94637.06;;;3.21;100.00
11347;BME280;5728;42.722;23.258;2022-12-24T00:23:35;94645.06;;;3.55;100.00
11347;BME280;5728;42.722;23.258;2022-12-24T00:26:02;94644.38;;;3.72;100.00
11347;BME280;5728;42.722;23.258;2022-12-24T00:28:30;94643.63;;;3.88;99.11
11347;BME280;5728;42.722;23.258;2022-12-24T00:30:57;94637.78;;;4.09;98.88
11347;BME280;5728;42.722;23.258;2022-12-24T00:33:23;94651.59;;;4.26;96.71
11347;BME280;5728;42.722;23.258;2022-12-24T00:35:51;94624.00;;;3.92;95.80
11347;BME280;5728;42.722;23.258;2022-12-24T00:38:18;94633.63;;;4.26;95.95
11347;BME280;5728;42.722;23.258;2022-12-24T00:40:45;94639.63;;;4.31;93.40
11347;BME280;5728;42.722;23.258;2022-12-24T00:43:11;94640.56;;;4.38;92.68
11347;BME280;5728;42.722;23.258;2022-12-24T00:45:40;94643.06;;;4.30;92.97
11347;BME280;5728;42.722;23.258;2022-12-24T00:48:07;94648.19;;;4.27;92.57
11347;BME280;5728;42.722;23.258;2022-12-24T00:50:34;94635.28;;;4.15;92.82
11347;BME280;5728;42.722;23.258;2022-12-24T00:53:01;94648.09;;;4.18;92.75
11347;BME280;5728;42.722;23.258;2022-12-24T00:55:28;94649.72;;;4.06;94.24
11347;BME280;5728;42.722;23.258;2022-12-24T00:57:54;94649.38;;;3.62;95.10
11347;BME280;5728;42.722;23.258;2022-12-24T01:00:21;94652.13;;;3.83;95.50
11347;BME280;5728;42.722;23.258;2022-12-24T01:02:49;94662.25;;;3.66;93.99
11347;BME280;5728;42.722;23.258;2022-12-24T01:05:16;94640.78;;;3.52;95.94
11347;BME280;5728;42.722;23.258;2022-12-24T01:07:45;94653.81;;;3.81;94.74
11347;BME280;5728;42.722;23.258;2022-12-24T01:10:14;94652.69;;;3.49;95.01
11347;BME280;5728;42.722;23.258;2022-12-24T01:12:42;94664.66;;;3.53;96.06
11347;BME280;5728;42.722;23.258;2022-12-24T01:15:10;94663.66;;;3.34;96.40
11347;BME280;5728;42.722;23.258;2022-12-24T01:17:39;94662.47;;;3.03;98.55
11347;BME280;5728;42.722;23.258;2022-12-24T01:20:13;94646.44;;;3.21;98.69
11347;BME280;5728;42.722;23.258;2022-12-24T01:22:41;94641.28;;;3.16;99.33
11347;BME280;5728;42.722;23.258;2022-12-24T01:25:08;94642.72;;;2.95;100.00
11347;BME280;5728;42.722;23.258;2022-12-24T01:27:35;94639.91;;;2.72;100.00
11347;BME280;5728;42.722;23.258;2022-12-24T01:30:02;94635.00;;;2.24;100.00
11347;BME280;5728;42.722;23.258;2022-12-24T01:32:30;94645.16;;;2.81;100.00
11347;BME280;5728;42.722;23.258;2022-12-24T01:34:56;94655.59;;;3.01;100.00
11347;BME280;5728;42.722;23.258;2022-12-24T01:37:25;94648.84;;;3.06;100.00
11347;BME280;5728;42.722;23.258;2022-12-24T01:39:52;94652.34;;;3.15;100.00
11347;BME280;5728;42.722;23.258;2022-12-24T01:42:43;94647.63;;;2.74;99.33
11347;BME280;5728;42.722;23.258;2022-12-24T01:45:43;94628.13;;;2.86;100.00
11347;BME280;5728;42.722;23.258;2022-12-24T01:48:21;94631.66;;;2.97;100.00
11347;BME280;5728;42.722;23.258;2022-12-24T01:50:51;94647.94;;;2.35;100.00
11347;BME280;5728;42.722;23.258;2022-12-24T01:53:23;94646.66;;;2.67;100.00
11347;BME280;5728;42.722;23.258;2022-12-24T01:55:50;94651.56;;;2.49;100.00
11347;BME280;5728;42.722;23.258;2022-12-24T01:58:18;94646.88;;;2.85;100.00
11347;BME280;5728;42.722;23.258;2022-12-24T02:00:47;94636.75;;;2.94;100.00
11347;BME280;5728;42.722;23.258;2022-12-24T02:03:14;94621.25;;;2.82;100.00
11347;BME280;5728;42.722;23.258;2022-12-24T02:05:45;94630.72;;;2.22;100.00
11347;BME280;5728;42.722;23.258;2022-12-24T02:08:13;94632.19;;;2.03;100.00
11347;BME280;5728;42.722;23.258;2022-12-24T02:10:42;94627.03;;;2.02;100.00
11347;BME280;5728;42.722;23.258;2022-12-24T02:13:09;94630.66;;;2.16;100.00
11347;BME280;5728;42.722;23.258;2022-12-24T02:15:50;94624.94;;;2.35;100.00
11347;BME280;5728;42.722;23.258;2022-12-24T02:18:25;94628.00;;;2.08;100.00
11347;BME280;5728;42.722;23.258;2022-12-24T02:21:15;94634.91;;;2.17;100.00
11347;BME280;5728;42.722;23.258;2022-12-24T02:26:58;94643.59;;;2.26;100.00
11347;BME280;5728;42.722;23.258;2022-12-24T02:29:56;94639.56;;;1.85;100.00
11347;BME280;5728;42.722;23.258;2022-12-24T02:32:29;94636.78;;;1.71;100.00
11347;BME280;5728;42.722;23.258;2022-12-24T02:35:04;94639.50;;;1.80;100.00
11347;BME280;5728;42.722;23.258;2022-12-24T02:37:33;94636.53;;;1.53;100.00
11347;BME280;5728;42.722;23.258;2022-12-24T02:40:07;94591.59;;;1.15;100.00
11347;BME280;5728;42.722;23.258;2022-12-24T02:42:38;94641.16;;;1.26;100.00
11347;BME280;5728;42.722;23.258;2022-12-24T02:45:09;94633.31;;;1.15;100.00
11347;BME280;5728;42.722;23.258;2022-12-24T02:47:39;94629.78;;;1.58;100.00
11347;BME280;5728;42.722;23.258;2022-12-24T02:50:09;94616.72;;;1.96;100.00
11347;BME280;5728;42.722;23.258;2022-12-24T02:52:37;94606.81;;;2.20;100.00
11347;BME280;5728;42.722;23.258;2022-12-24T02:55:06;94614.75;;;2.36;100.00
11347;BME280;5728;42.722;23.258;2022-12-24T02:57:47;94616.84;;;2.69;100.00
11347;BME280;5728;42.722;23.258;2022-12-24T03:00:20;94611.91;;;2.87;100.00
11347;BME280;5728;42.722;23.258;2022-12-24T03:03:11;94623.22;;;3.07;100.00
11347;BME280;5728;42.722;23.258;2022-12-24T03:05:47;94612.34;;;3.27;97.43
11347;BME280;5728;42.722;23.258;2022-12-24T03:08:20;94616.69;;;3.37;96.24
11347;BME280;5728;42.722;23.258;2022-12-24T03:10:55;94613.97;;;3.17;97.25
11347;BME280;5728;42.722;23.258;2022-12-24T03:13:23;94613.13;;;3.22;95.86
11347;BME280;5728;42.722;23.258;2022-12-24T03:15:53;94614.94;;;3.31;93.18
11347;BME280;5728;42.722;23.258;2022-12-24T03:18:22;94615.00;;;3.39;93.96
11347;BME280;5728;42.722;23.258;2022-12-24T03:20:54;94617.50;;;3.30;92.74
11347;BME280;5728;42.722;23.258;2022-12-24T03:23:23;94609.94;;;3.45;92.65
11347;BME280;5728;42.722;23.258;2022-12-24T03:25:50;94614.16;;;3.43;92.76
11347;BME280;5728;42.722;23.258;2022-12-24T03:28:18;94616.78;;;3.46;92.28
11347;BME280;5728;42.722;23.258;2022-12-24T03:30:46;94610.81;;;3.48;93.14
11347;BME280;5728;42.722;23.258;2022-12-24T03:33:15;94613.50;;;3.62;91.59
11347;BME280;5728;42.722;23.258;2022-12-24T03:35:43;94611.59;;;3.41;92.01
11347;BME280;5728;42.722;23.258;2022-12-24T03:38:10;94613.41;;;3.53;95.58
11347;BME280;5728;42.722;23.258;2022-12-24T03:40:37;94606.75;;;2.81;96.99
11347;BME280;5728;42.722;23.258;2022-12-24T03:43:04;94626.91;;;2.57;98.94
11347;BME280;5728;42.722;23.258;2022-12-24T03:45:30;94623.44;;;2.52;100.00
11347;BME280;5728;42.722;23.258;2022-12-24T03:47:57;94621.00;;;2.61;100.00
11347;BME280;5728;42.722;23.258;2022-12-24T03:50:25;94629.56;;;2.65;100.00
11347;BME280;5728;42.722;23.258;2022-12-24T03:52:53;94616.84;;;2.72;100.00
11347;BME280;5728;42.722;23.258;2022-12-24T03:55:20;94631.31;;;2.67;99.97
11347;BME280;5728;42.722;23.258;2022-12-24T03:57:46;94632.88;;;2.56;99.53
11347;BME280;5728;42.722;23.258;2022-12-24T04:00:14;94629.59;;;2.66;98.04
11347;BME280;5728;42.722;23.258;2022-12-24T04:02:41;94634.44;;;2.45;99.81
11347;BME280;5728;42.722;23.258;2022-12-24T04:05:12;94647.56;;;2.72;99.21
11347;BME280;5728;42.722;23.258;2022-12-24T04:07:41;94654.38;;;2.70;99.48
11347;BME280;5728;42.722;23.258;2022-12-24T04:10:09;94644.38;;;2.88;97.99
11347;BME280;5728;42.722;23.258;2022-12-24T04:12:36;94654.25;;;2.59;96.45
11347;BME280;5728;42.722;23.258;2022-12-24T04:15:03;94641.59;;;2.70;99.09
11347;BME280;5728;42.722;23.258;2022-12-24T04:17:30;94637.88;;;2.45;98.83
11347;BME280;5728;42.722;23.258;2022-12-24T04:19:57;94644.91;;;2.63;99.26
11347;BME280;5728;42.722;23.258;2022-12-24T04:22:24;94649.63;;;2.33;100.00
11347;BME280;5728;42.722;23.258;2022-12-24T04:24:52;94651.81;;;2.70;99.77
11347;BME280;5728;42.722;23.258;2022-12-24T04:27:19;94650.31;;;2.86;99.58
11347;BME280;5728;42.722;23.258;2022-12-24T04:29:46;94660.41;;;2.74;97.95
11347;BME280;5728;42.722;23.258;2022-12-24T04:32:12;94663.16;;;2.90;97.13
11347;BME280;5728;42.722;23.258;2022-12-24T04:34:39;94662.72;;;2.54;99.50
11347;BME280;5728;42.722;23.258;2022-12-24T04:37:06;94658.84;;;2.20;99.13
11347;BME280;5728;42.722;23.258;2022-12-24T04:39:32;94678.16;;;1.49;100.00
11347;BME280;5728;42.722;23.258;2022-12-24T04:42:01;94687.50;;;1.47;100.00
11347;BME280;5728;42.722;23.258;2022-12-24T04:44:27;94665.44;;;1.52;100.00
11347;BME280;5728;42.722;23.258;2022-12-24T04:46:54;94652.06;;;1.17;100.00
11347;BME280;5728;42.722;23.258;2022-12-24T04:49:21;94659.28;;;1.41;100.00
11347;BME280;5728;42.722;23.258;2022-12-24T04:51:47;94657.16;;;1.65;100.00
11347;BME280;5728;42.722;23.258;2022-12-24T04:54:14;94658.16;;;1.75;100.00
11347;BME280;5728;42.722;23.258;2022-12-24T04:56:41;94655.72;;;1.84;100.00
11347;BME280;5728;42.722;23.258;2022-12-24T04:59:09;94656.19;;;2.14;100.00
11347;BME280;5728;42.722;23.258;2022-12-24T05:01:36;94675.34;;;2.42;100.00
11347;BME280;5728;42.722;23.258;2022-12-24T05:04:02;94650.03;;;2.62;100.00
11347;BME280;5728;42.722;23.258;2022-12-24T05:06:31;94651.13;;;2.85;100.00
11347;BME280;5728;42.722;23.258;2022-12-24T05:08:58;94645.25;;;2.90;100.00
11347;BME280;5728;42.722;23.258;2022-12-24T05:11:25;94641.84;;;2.91;99.79
11347;BME280;5728;42.722;23.258;2022-12-24T05:13:52;94634.88;;;2.78;98.20
11347;BME280;5728;42.722;23.258;2022-12-24T05:16:22;94626.44;;;2.88;97.85
11347;BME280;5728;42.722;23.258;2022-12-24T05:18:49;94622.16;;;2.87;96.34
11347;BME280;5728;42.722;23.258;2022-12-24T05:21:17;94617.94;;;2.92;94.90
11347;BME280;5728;42.722;23.258;2022-12-24T05:23:44;94628.19;;;2.89;94.29
11347;BME280;5728;42.722;23.258;2022-12-24T05:26:31;94640.81;;;2.77;96.85
11347;BME280;5728;42.722;23.258;2022-12-24T05:29:00;94649.41;;;2.79;95.51
11347;BME280;5728;42.722;23.258;2022-12-24T05:31:30;94641.75;;;2.85;94.61
11347;BME280;5728;42.722;23.258;2022-12-24T05:33:57;94656.53;;;3.07;92.51
11347;BME280;5728;42.722;23.258;2022-12-24T05:36:24;94644.63;;;2.39;91.64
11347;BME280;5728;42.722;23.258;2022-12-24T05:38:51;94639.47;;;2.37;94.75
11347;BME280;5728;42.722;23.258;2022-12-24T05:41:18;94641.44;;;2.58;95.28
11347;BME280;5728;42.722;23.258;2022-12-24T05:43:45;94640.66;;;2.64;94.85
11347;BME280;5728;42.722;23.258;2022-12-24T05:46:14;94639.69;;;2.54;95.23
11347;BME280;5728;42.722;23.258;2022-12-24T05:48:42;94638.88;;;1.95;97.70
11347;BME280;5728;42.722;23.258;2022-12-24T05:51:11;94626.19;;;2.01;99.34
11347;BME280;5728;42.722;23.258;2022-12-24T05:53:39;94626.19;;;2.03;100.00
11347;BME280;5728;42.722;23.258;2022-12-24T05:56:08;94637.78;;;2.38;100.00
11347;BME280;5728;42.722;23.258;2022-12-24T05:58:35;94644.69;;;2.45;99.05
11347;BME280;5728;42.722;23.258;2022-12-24T06:01:03;94646.66;;;2.66;100.00
11347;BME280;5728;42.722;23.258;2022-12-24T06:03:31;94650.94;;;2.67;99.23
11347;BME280;5728;42.722;23.258;2022-12-24T06:06:00;94646.66;;;2.67;98.06
11347;BME280;5728;42.722;23.258;2022-12-24T06:08:28;94650.25;;;2.81;97.93
11347;BME280;5728;42.722;23.258;2022-12-24T06:10:55;94651.47;;;3.13;95.68
11347;BME280;5728;42.722;23.258;2022-12-24T06:13:23;94649.78;;;3.14;94.21
11347;BME280;5728;42.722;23.258;2022-12-24T06:15:50;94658.13;;;2.98;94.91
11347;BME280;5728;42.722;23.258;2022-12-24T06:18:17;94661.72;;;3.15;94.46
11347;BME280;5728;42.722;23.258;2022-12-24T06:20:44;94652.47;;;3.28;96.75
11347;BME280;5728;42.722;23.258;2022-12-24T06:23:12;94656.72;;;3.24;95.23
11347;BME280;5728;42.722;23.258;2022-12-24T06:25:39;94654.13;;;3.19;95.21
11347;BME280;5728;42.722;23.258;2022-12-24T06:28:06;94660.97;;;3.23;94.57
11347;BME280;5728;42.722;23.258;2022-12-24T06:30:32;94655.25;;;3.49;92.53
11347;BME280;5728;42.722;23.258;2022-12-24T06:32:59;94656.88;;;3.39;94.78
11347;BME280;5728;42.722;23.258;2022-12-24T06:35:26;94660.44;;;3.56;91.95
11347;BME280;5728;42.722;23.258;2022-12-24T06:37:52;94666.41;;;3.54;90.87
11347;BME280;5728;42.722;23.258;2022-12-24T06:40:20;94675.06;;;3.68;91.10
11347;BME280;5728;42.722;23.258;2022-12-24T06:42:47;94665.63;;;3.64;89.50
11347;BME280;5728;42.722;23.258;2022-12-24T06:45:14;94673.25;;;3.55;89.97
11347;BME280;5728;42.722;23.258;2022-12-24T06:47:41;94675.06;;;3.68;89.63
11347;BME280;5728;42.722;23.258;2022-12-24T06:50:08;94697.03;;;3.43;90.61
11347;BME280;5728;42.722;23.258;2022-12-24T06:52:35;94686.75;;;3.39;91.21
11347;BME280;5728;42.722;23.258;2022-12-24T06:55:03;94661.50;;;3.81;95.80
11347;BME280;5728;42.722;23.258;2022-12-24T06:57:31;94675.25;;;3.89;92.99
11347;BME280;5728;42.722;23.258;2022-12-24T06:59:58;94683.97;;;4.09;91.67
11347;BME280;5728;42.722;23.258;2022-12-24T07:02:24;94672.91;;;4.21;91.05
11347;BME280;5728;42.722;23.258;2022-12-24T07:04:51;94677.22;;;4.23;90.54
11347;BME280;5728;42.722;23.258;2022-12-24T07:07:18;94680.03;;;4.58;89.80
11347;BME280;5728;42.722;23.258;2022-12-24T07:09:45;94679.97;;;4.52;88.50
11347;BME280;5728;42.722;23.258;2022-12-24T07:12:11;94688.47;;;4.42;89.66
11347;BME280;5728;42.722;23.258;2022-12-24T07:14:40;94679.25;;;4.79;89.10
11347;BME280;5728;42.722;23.258;2022-12-24T07:17:06;94684.41;;;4.82;88.20
11347;BME280;5728;42.722;23.258;2022-12-24T07:19:33;94682.69;;;4.75;88.51
11347;BME280;5728;42.722;23.258;2022-12-24T07:22:00;94676.66;;;4.68;89.23
11347;BME280;5728;42.722;23.258;2022-12-24T07:24:27;94679.28;;;4.76;92.86
11347;BME280;5728;42.722;23.258;2022-12-24T07:26:53;94688.66;;;4.71;91.07
11347;BME280;5728;42.722;23.258;2022-12-24T07:29:20;94691.31;;;4.92;91.25
11347;BME280;5728;42.722;23.258;2022-12-24T07:31:49;94695.69;;;5.18;89.32
11347;BME280;5728;42.722;23.258;2022-12-24T07:34:15;94693.16;;;5.20;89.54
11347;BME280;5728;42.722;23.258;2022-12-24T07:36:42;94693.22;;;5.44;89.29
11347;BME280;5728;42.722;23.258;2022-12-24T07:39:09;94694.06;;;5.33;89.81
11347;BME280;5728;42.722;23.258;2022-12-24T07:41:35;94685.53;;;5.64;88.34
11347;BME280;5728;42.722;23.258;2022-12-24T07:44:02;94682.94;;;5.47;88.65
11347;BME280;5728;42.722;23.258;2022-12-24T07:46:29;94695.00;;;5.75;89.02
11347;BME280;5728;42.722;23.258;2022-12-24T07:48:57;94695.91;;;5.94;87.01
11347;BME280;5728;42.722;23.258;2022-12-24T07:51:24;94711.34;;;5.88;87.23
11347;BME280;5728;42.722;23.258;2022-12-24T07:53:51;94703.63;;;6.09;89.33
11347;BME280;5728;42.722;23.258;2022-12-24T07:56:17;94720.81;;;6.18;87.07
11347;BME280;5728;42.722;23.258;2022-12-24T07:58:44;94701.06;;;6.32;87.89
11347;BME280;5728;42.722;23.258;2022-12-24T08:01:11;94705.34;;;5.85;87.35
11347;BME280;5728;42.722;23.258;2022-12-24T08:03:38;94713.94;;;6.05;87.24
11347;BME280;5728;42.722;23.258;2022-12-24T08:06:06;94717.34;;;5.98;86.46
11347;BME280;5728;42.722;23.258;2022-12-24T08:08:33;94730.25;;;6.08;87.61
11347;BME280;5728;42.722;23.258;2022-12-24T08:11:02;94728.50;;;6.07;87.79
11347;BME280;5728;42.722;23.258;2022-12-24T08:13:30;94724.22;;;6.56;87.00
11347;BME280;5728;42.722;23.258;2022-12-24T08:15:57;94722.50;;;6.32;85.79
11347;BME280;5728;42.722;23.258;2022-12-24T08:18:24;94715.63;;;6.69;86.71
11347;BME280;5728;42.722;23.258;2022-12-24T08:20:51;94710.50;;;6.40;86.81
11347;BME280;5728;42.722;23.258;2022-12-24T08:23:19;94708.81;;;6.36;86.64
11347;BME280;5728;42.722;23.258;2022-12-24T08:25:47;94695.03;;;5.97;87.47
11347;BME280;5728;42.722;23.258;2022-12-24T08:28:15;94711.34;;;6.05;88.93
11347;BME280;5728;42.722;23.258;2022-12-24T08:30:43;94701.94;;;6.16;88.66
11347;BME280;5728;42.722;23.258;2022-12-24T08:33:10;94704.47;;;6.37;89.34
11347;BME280;5728;42.722;23.258;2022-12-24T08:35:37;94700.22;;;6.18;87.78
11347;BME280;5728;42.722;23.258;2022-12-24T08:38:03;94690.75;;;6.24;88.28
11347;BME280;5728;42.722;23.258;2022-12-24T08:40:31;94709.66;;;6.25;88.66
11347;BME280;5728;42.722;23.258;2022-12-24T08:43:00;94662.41;;;6.39;89.52
11347;BME280;5728;42.722;23.258;2022-12-24T08:45:27;94712.22;;;6.43;88.17
11347;BME280;5728;42.722;23.258;2022-12-24T08:47:54;94718.19;;;6.57;87.12
11347;BME280;5728;42.722;23.258;2022-12-24T08:50:21;94721.63;;;6.70;86.46
11347;BME280;5728;42.722;23.258;2022-12-24T08:52:48;94721.66;;;6.15;86.63
11347;BME280;5728;42.722;23.258;2022-12-24T08:55:14;94714.78;;;6.22;86.36
11347;BME280;5728;42.722;23.258;2022-12-24T08:57:43;94712.16;;;6.78;86.56
11347;BME280;5728;42.722;23.258;2022-12-24T09:00:11;94699.34;;;6.32;86.72
11347;BME280;5728;42.722;23.258;2022-12-24T09:02:38;94712.22;;;6.37;87.64
11347;BME280;5728;42.722;23.258;2022-12-24T09:05:05;94708.75;;;6.65;87.48
11347;BME280;5728;42.722;23.258;2022-12-24T09:07:32;94691.53;;;6.82;87.78
11347;BME280;5728;42.722;23.258;2022-12-24T09:09:59;94720.72;;;6.87;87.35
11347;BME280;5728;42.722;23.258;2022-12-24T09:12:26;94710.41;;;6.90;87.01
11347;BME280;5728;42.722;23.258;2022-12-24T09:14:54;94725.88;;;6.96;87.47
11347;BME280;5728;42.722;23.258;2022-12-24T09:17:21;94716.41;;;6.92;87.82
11347;BME280;5728;42.722;23.258;2022-12-24T09:19:48;94707.75;;;7.21;85.34
11347;BME280;5728;42.722;23.258;2022-12-24T09:22:15;94695.72;;;7.17;85.98
11347;BME280;5728;42.722;23.258;2022-12-24T09:24:42;94691.56;;;6.73;84.62
11347;BME280;5728;42.722;23.258;2022-12-24T09:27:09;94701.69;;;7.28;85.69
11347;BME280;5728;42.722;23.258;2022-12-24T09:29:36;94710.34;;;7.10;84.53
11347;BME280;5728;42.722;23.258;2022-12-24T09:32:06;94704.28;;;7.32;84.54
11347;BME280;5728;42.722;23.258;2022-12-24T09:34:33;94712.00;;;7.34;84.02
11347;BME280;5728;42.722;23.258;2022-12-24T09:37:00;94706.78;;;7.43;83.37
11347;BME280;5728;42.722;23.258;2022-12-24T09:39:27;94702.50;;;7.39;83.34
11347;BME280;5728;42.722;23.258;2022-12-24T09:41:59;94694.00;;;7.16;84.08
11347;BME280;5728;42.722;23.258;2022-12-24T09:44:37;94676.00;;;7.10;84.30
11347;BME280;5728;42.722;23.258;2022-12-24T09:47:13;94684.63;;;6.96;83.08
11347;BME280;5728;42.722;23.258;2022-12-24T09:49:48;94691.53;;;6.85;85.58
11347;BME280;5728;42.722;23.258;2022-12-24T09:52:22;94677.69;;;7.14;84.95
11347;BME280;5728;42.722;23.258;2022-12-24T09:54:57;94676.78;;;7.21;83.62
11347;BME280;5728;42.722;23.258;2022-12-24T09:57:29;94682.81;;;7.18;83.97
11347;BME280;5728;42.722;23.258;2022-12-24T09:59:58;94694.84;;;7.21;83.98
11347;BME280;5728;42.722;23.258;2022-12-24T10:02:26;94682.78;;;7.32;84.02
11347;BME280;5728;42.722;23.258;2022-12-24T10:04:53;94708.41;;;7.65;81.11
11347;BME280;5728;42.722;23.258;2022-12-24T10:07:29;94707.72;;;7.24;82.43
11347;BME280;5728;42.722;23.258;2022-12-24T10:10:03;94699.09;;;7.34;82.77
11347;BME280;5728;42.722;23.258;2022-12-24T10:12:42;94689.63;;;7.36;82.04
11347;BME280;5728;42.722;23.258;2022-12-24T10:15:20;94679.38;;;7.27;82.82
11347;BME280;5728;42.722;23.258;2022-12-24T10:17:59;94670.66;;;7.46;83.33
11347;BME280;5728;42.722;23.258;2022-12-24T10:20:43;94664.72;;;7.30;81.97
11347;BME280;5728;42.722;23.258;2022-12-24T10:23:16;94677.75;;;6.98;86.15
11347;BME280;5728;42.722;23.258;2022-12-24T10:25:48;94684.50;;;7.30;86.06
11347;BME280;5728;42.722;23.258;2022-12-24T10:28:20;94681.06;;;7.28;83.74
11347;BME280;5728;42.722;23.258;2022-12-24T10:30:53;94683.47;;;7.64;82.71
11347;BME280;5728;42.722;23.258;2022-12-24T10:33:28;94679.75;;;8.04;81.94
11347;BME280;5728;42.722;23.258;2022-12-24T10:35:57;94683.06;;;8.18;78.80
11347;BME280;5728;42.722;23.258;2022-12-24T10:38:24;94678.91;;;8.02;79.99
11347;BME280;5728;42.722;23.258;2022-12-24T10:40:53;94675.66;;;7.78;79.16
11347;BME280;5728;42.722;23.258;2022-12-24T10:43:23;94668.63;;;7.93;81.61
11347;BME280;5728;42.722;23.258;2022-12-24T10:45:55;94673.56;;;8.23;80.30
11347;BME280;5728;42.722;23.258;2022-12-24T10:48:26;94668.47;;;8.17;78.55
11347;BME280;5728;42.722;23.258;2022-12-24T10:51:00;94663.97;;;8.42;78.32
11347;BME280;5728;42.722;23.258;2022-12-24T10:53:36;94675.91;;;8.58;77.43
11347;BME280;5728;42.722;23.258;2022-12-24T10:56:06;94676.66;;;8.66;78.35
11347;BME280;5728;42.722;23.258;2022-12-24T10:58:33;94671.50;;;8.68;77.35
11347;BME280;5728;42.722;23.258;2022-12-24T11:01:00;94676.81;;;8.50;77.25
11347;BME280;5728;42.722;23.258;2022-12-24T11:03:30;94673.81;;;8.93;76.08
11347;BME280;5728;42.722;23.258;2022-12-24T11:06:03;94676.94;;;8.38;77.54
11347;BME280;5728;42.722;23.258;2022-12-24T11:08:32;94676.69;;;8.65;77.85
11347;BME280;5728;42.722;23.258;2022-12-24T11:11:00;94656.19;;;8.47;78.49
11347;BME280;5728;42.722;23.258;2022-12-24T11:13:29;94655.78;;;8.86;78.79
11347;BME280;5728;42.722;23.258;2022-12-24T11:16:03;94639.53;;;8.75;77.75
11347;BME280;5728;42.722;23.258;2022-12-24T11:18:34;94654.56;;;8.35;78.49
11347;BME280;5728;42.722;23.258;2022-12-24T11:21:02;94659.78;;;8.30;79.53
11347;BME280;5728;42.722;23.258;2022-12-24T11:23:30;94666.53;;;8.44;80.33
11347;BME280;5728;42.722;23.258;2022-12-24T11:25:57;94659.28;;;8.82;79.75
11347;BME280;5728;42.722;23.258;2022-12-24T11:28:26;94663.00;;;9.33;77.40
11347;BME280;5728;42.722;23.258;2022-12-24T11:31:04;94674.22;;;9.33;76.95
11347;BME280;5728;42.722;23.258;2022-12-24T11:33:45;94672.50;;;9.29;77.10
11347;BME280;5728;42.722;23.258;2022-12-24T11:36:13;94663.41;;;9.65;77.98
11347;BME280;5728;42.722;23.258;2022-12-24T11:38:40;94649.97;;;10.01;74.48
11347;BME280;5728;42.722;23.258;2022-12-24T11:41:09;94660.41;;;9.97;74.20
11347;BME280;5728;42.722;23.258;2022-12-24T11:43:42;94658.56;;;10.03;73.62
11347;BME280;5728;42.722;23.258;2022-12-24T11:46:15;94642.34;;;9.91;74.63
11347;BME280;5728;42.722;23.258;2022-12-24T11:48:43;94644.25;;;10.35;74.47
11347;BME280;5728;42.722;23.258;2022-12-24T11:51:22;94639.25;;;10.74;71.32
11347;BME280;5728;42.722;23.258;2022-12-24T11:53:55;94646.41;;;10.60;71.07
11347;BME280;5728;42.722;23.258;2022-12-24T11:56:32;94640.78;;;10.84;72.38
11347;BME280;5728;42.722;23.258;2022-12-24T11:59:07;94637.00;;;11.01;71.20
11347;BME280;5728;42.722;23.258;2022-12-24T12:01:38;94631.50;;;11.17;71.10
11347;BME280;5728;42.722;23.258;2022-12-24T12:04:14;94625.19;;;11.29;69.74
11347;BME280;5728;42.722;23.258;2022-12-24T12:06:45;94633.91;;;11.66;69.14
11347;BME280;5728;42.722;23.258;2022-12-24T12:09:16;94629.72;;;12.00;69.06
11347;BME280;5728;42.722;23.258;2022-12-24T12:11:48;94635.56;;;12.08;66.48
11347;BME280;5728;42.722;23.258;2022-12-24T12:14:20;94637.69;;;11.93;67.23
11347;BME280;5728;42.722;23.258;2022-12-24T12:16:52;94634.06;;;12.00;67.77
11347;BME280;5728;42.722;23.258;2022-12-24T12:19:33;94645.72;;;11.82;68.47
11347;BME280;5728;42.722;23.258;2022-12-24T12:22:04;94650.28;;;12.09;67.29
11347;BME280;5728;42.722;23.258;2022-12-24T12:24:35;94641.69;;;11.68;67.77
11347;BME280;5728;42.722;23.258;2022-12-24T12:27:12;94657.44;;;11.60;68.77
11347;BME280;5728;42.722;23.258;2022-12-24T12:29:46;94653.53;;;11.81;67.63
11347;BME280;5728;42.722;23.258;2022-12-24T12:32:24;94642.78;;;11.56;68.08
11347;BME280;5728;42.722;23.258;2022-12-24T12:34:58;94635.25;;;11.44;69.81
11347;BME280;5728;42.722;23.258;2022-12-24T12:37:31;94629.69;;;11.21;72.58
11347;BME280;5728;42.722;23.258;2022-12-24T12:40:00;94633.91;;;11.26;70.42
11347;BME280;5728;42.722;23.258;2022-12-24T12:42:30;94633.84;;;11.28;70.59
11347;BME280;5728;42.722;23.258;2022-12-24T12:45:29;94641.34;;;11.43;69.99
11347;BME280;5728;42.722;23.258;2022-12-24T12:50:49;94651.50;;;11.12;71.76
11347;BME280;5728;42.722;23.258;2022-12-24T12:53:29;94658.38;;;11.15;71.77
11347;BME280;5728;42.722;23.258;2022-12-24T12:56:08;94657.38;;;11.20;72.15
11347;BME280;5728;42.722;23.258;2022-12-24T12:58:41;94663.66;;;11.09;71.79
11347;BME280;5728;42.722;23.258;2022-12-24T13:01:15;94666.84;;;11.23;71.33
11347;BME280;5728;42.722;23.258;2022-12-24T13:04:04;94668.13;;;11.01;71.86
11347;BME280;5728;42.722;23.258;2022-12-24T13:10:00;94674.63;;;11.24;72.36
11347;BME280;5728;42.722;23.258;2022-12-24T13:12:47;94652.31;;;11.13;72.41
11347;BME280;5728;42.722;23.258;2022-12-24T13:15:49;94661.75;;;11.18;72.45
11347;BME280;5728;42.722;23.258;2022-12-24T13:21:15;94677.13;;;11.29;72.33
11347;BME280;5728;42.722;23.258;2022-12-24T13:23:43;94679.34;;;11.03;72.35
11347;BME280;5728;42.722;23.258;2022-12-24T13:26:12;94683.22;;;10.80;73.49
11347;BME280;5728;42.722;23.258;2022-12-24T13:28:40;94685.13;;;10.71;75.14
11347;BME280;5728;42.722;23.258;2022-12-24T13:31:31;94694.56;;;10.73;75.67
11347;BME280;5728;42.722;23.258;2022-12-24T13:34:02;94684.28;;;10.67;76.30